Terminal Aerodrome Forecast
Issued by NWS

Home | Current Version | Previous Version | Text Only | Print | Product List | Glossary On
Versions: 1 2 3 4 5 6 7 8 9 10 11 12 13 14 15 16
000
FTUS46 KMFR 201134
TAFOTH
TAF
KOTH 201134Z 2012/2112 15008KT P6SM OVC060
     FM201800 15008KT P6SM -SHRA BKN025 OVC040
     FM210800 16006KT P6SM SCT025=

USA.gov is the U.S. government's official web portal to all federal, state and local government web resources and services.